createdAt,value
2018-07-01T00:00:13.509Z,50.70
2018-07-01T00:02:41.574Z,50.80
2018-07-01T00:05:10.049Z,51.70
2018-07-01T00:07:38.028Z,50.80
2018-07-01T00:10:07.444Z,50.80
2018-07-01T00:12:35.725Z,51.00
2018-07-01T00:15:04.404Z,51.40
2018-07-01T00:17:32.470Z,51.60
2018-07-01T00:20:00.367Z,51.40
2018-07-01T00:22:28.305Z,51.40
2018-07-01T00:24:56.261Z,51.70
2018-07-01T00:27:24.184Z,51.30
2018-07-01T00:29:52.090Z,51.30
2018-07-01T00:32:20.017Z,51.60
2018-07-01T00:34:48.012Z,51.60
2018-07-01T00:37:15.910Z,51.80
2018-07-01T00:42:11.625Z,52.00
2018-07-01T00:44:39.608Z,52.00
2018-07-01T00:47:07.450Z,51.70
2018-07-01T00:49:35.370Z,51.60
2018-07-01T00:52:03.302Z,52.00
2018-07-01T00:54:31.213Z,51.80
2018-07-01T00:56:59.149Z,51.80
2018-07-01T00:59:26.994Z,51.90
2018-07-01T01:01:55.489Z,52.60
2018-07-01T01:04:23.441Z,52.60
2018-07-01T01:06:51.340Z,53.00
2018-07-01T01:09:19.232Z,53.00
2018-07-01T01:11:47.175Z,53.20
2018-07-01T01:14:15.113Z,53.30
2018-07-01T01:16:43.028Z,53.70
2018-07-01T01:19:10.965Z,53.80
2018-07-01T01:21:38.897Z,53.60
2018-07-01T01:24:06.777Z,54.50
2018-07-01T01:26:34.636Z,55.60
2018-07-01T01:29:02.666Z,55.20
2018-07-01T01:31:30.881Z,55.80
2018-07-01T01:33:59.012Z,57.70
2018-07-01T01:36:29.053Z,57.10
2018-07-01T01:38:59.478Z,58.50
2018-07-01T01:41:32.819Z,56.60
2018-07-01T01:45:04.082Z,58.60
2018-07-01T01:48:34.929Z,57.70
2018-07-01T01:51:09.774Z,57.80
2018-07-01T01:53:43.289Z,58.10
2018-07-01T01:56:21.689Z,58.60
2018-07-01T01:59:01.096Z,59.00
2018-07-01T02:01:32.336Z,58.90
2018-07-01T02:04:09.877Z,59.20
2018-07-01T02:06:40.925Z,59.40
2018-07-01T02:09:17.153Z,59.60
2018-07-01T02:11:47.778Z,59.70
2018-07-01T02:14:22.649Z,59.20
2018-07-01T02:16:53.413Z,60.00
2018-07-01T02:19:21.405Z,60.20
2018-07-01T02:21:49.538Z,60.00
2018-07-01T02:24:22.031Z,59.30
2018-07-01T02:26:49.917Z,59.60
2018-07-01T02:29:17.877Z,60.00
2018-07-01T02:31:45.705Z,59.80
2018-07-01T02:34:13.620Z,59.90
2018-07-01T02:36:41.504Z,59.60
2018-07-01T02:39:10.069Z,59.90
2018-07-01T02:41:38.526Z,60.40
2018-07-01T02:44:06.723Z,61.10
2018-07-01T02:46:34.601Z,60.60
2018-07-01T02:49:02.893Z,60.90
2018-07-01T02:51:30.865Z,62.20
2018-07-01T02:53:58.774Z,61.00
2018-07-01T02:56:26.731Z,61.30
2018-07-01T02:58:54.589Z,60.20
2018-07-01T03:01:22.505Z,61.50
2018-07-01T03:03:50.442Z,60.00
2018-07-01T03:06:18.397Z,61.70
2018-07-01T03:08:46.316Z,60.90
2018-07-01T03:13:42.281Z,62.40
2018-07-01T03:16:10.152Z,63.60
2018-07-01T03:18:38.005Z,63.00
2018-07-01T03:21:05.933Z,64.30
2018-07-01T03:23:33.841Z,63.50
2018-07-01T03:26:01.714Z,62.20
2018-07-01T03:28:29.612Z,63.70
2018-07-01T03:30:57.449Z,62.80
2018-07-01T03:33:25.328Z,64.50
2018-07-01T03:35:53.265Z,62.20
2018-07-01T03:38:21.141Z,66.00
2018-07-01T03:40:48.912Z,65.30
2018-07-01T03:43:16.841Z,65.80
2018-07-01T03:45:44.694Z,64.80
2018-07-01T03:48:12.629Z,63.60
2018-07-01T03:50:40.499Z,64.40
2018-07-01T03:53:08.371Z,62.80
2018-07-01T03:55:36.249Z,66.50
2018-07-01T03:58:04.492Z,66.20
2018-07-01T04:00:32.403Z,63.50
2018-07-01T04:03:00.173Z,63.90
2018-07-01T04:05:28.173Z,67.30
2018-07-01T04:07:56.097Z,64.50
2018-07-01T04:10:23.944Z,65.90
2018-07-01T04:12:51.935Z,67.20
2018-07-01T04:15:19.796Z,66.60
2018-07-01T04:17:47.662Z,66.30
2018-07-01T04:20:15.530Z,66.40
2018-07-01T04:22:43.453Z,66.10
2018-07-01T04:25:11.317Z,66.40
2018-07-01T04:27:39.155Z,65.60
2018-07-01T04:30:07.103Z,66.00
2018-07-01T04:32:35.065Z,66.10
2018-07-01T04:35:02.997Z,65.60
2018-07-01T04:37:30.890Z,65.70
2018-07-01T04:39:58.698Z,65.40
2018-07-01T04:42:26.598Z,65.60
2018-07-01T04:44:54.509Z,65.20
2018-07-01T04:47:22.421Z,65.40
2018-07-01T04:49:50.380Z,65.00
2018-07-01T04:52:18.289Z,64.00
2018-07-01T04:54:46.231Z,62.90
2018-07-01T04:57:14.089Z,62.20
2018-07-01T04:59:41.981Z,59.10
2018-07-01T05:02:09.985Z,54.90
2018-07-01T05:04:37.748Z,52.00
2018-07-01T05:07:05.641Z,50.40
2018-07-01T05:09:33.516Z,48.60
2018-07-01T05:12:01.437Z,46.60
2018-07-01T05:16:57.316Z,43.60
2018-07-01T05:19:25.262Z,42.30
2018-07-01T05:21:53.097Z,39.20
2018-07-01T05:24:21.111Z,37.50
2018-07-01T05:29:16.817Z,36.50
2018-07-01T05:31:44.729Z,35.30
2018-07-01T05:34:12.640Z,34.30
2018-07-01T05:36:40.605Z,35.30
2018-07-01T05:39:10.237Z,34.20
2018-07-01T05:41:38.166Z,33.10
2018-07-01T05:44:06.262Z,33.10
2018-07-01T05:46:34.190Z,32.20
2018-07-01T05:49:02.321Z,31.90
2018-07-01T05:51:30.490Z,32.00
2018-07-01T05:53:58.436Z,33.20
2018-07-01T05:56:26.329Z,34.20
2018-07-01T05:58:54.497Z,36.00
2018-07-01T06:01:22.365Z,37.00
2018-07-01T06:03:50.252Z,37.80
2018-07-01T06:08:46.116Z,37.50
2018-07-01T06:11:13.955Z,38.80
2018-07-01T06:13:41.831Z,40.10
2018-07-01T06:16:09.709Z,39.90
2018-07-01T06:18:37.632Z,38.90
2018-07-01T06:21:05.511Z,38.40
2018-07-01T06:23:33.417Z,39.10
2018-07-01T06:26:01.401Z,40.10
2018-07-01T06:28:29.241Z,40.00
2018-07-01T06:30:57.165Z,39.40
2018-07-01T06:33:25.090Z,40.10
2018-07-01T06:35:53.010Z,38.90
2018-07-01T06:38:21.821Z,36.30
2018-07-01T06:40:51.007Z,38.10
2018-07-01T06:43:21.630Z,38.20
2018-07-01T06:45:51.625Z,39.80
2018-07-01T06:48:21.903Z,39.20
2018-07-01T06:50:51.426Z,40.80
2018-07-01T06:53:21.615Z,40.00
2018-07-01T06:55:52.000Z,39.50
2018-07-01T06:58:21.707Z,40.20
2018-07-01T07:00:51.868Z,38.80
2018-07-01T07:03:21.914Z,36.40
2018-07-01T07:05:50.449Z,37.40
2018-07-01T07:08:18.402Z,38.40
2018-07-01T07:10:46.253Z,38.90
2018-07-01T07:13:14.098Z,39.00
2018-07-01T07:15:42.003Z,38.50
2018-07-01T07:18:09.944Z,38.80
2018-07-01T07:20:37.836Z,40.00
2018-07-01T07:23:06.716Z,40.00
2018-07-01T07:25:34.585Z,39.20
2018-07-01T07:30:30.517Z,40.20
2018-07-01T07:32:58.437Z,38.80
2018-07-01T07:35:26.473Z,38.70
2018-07-01T07:37:54.594Z,37.00
2018-07-01T07:40:22.433Z,36.90
2018-07-01T07:42:50.348Z,36.90
2018-07-01T07:45:18.292Z,37.60
2018-07-01T07:47:46.153Z,38.00
2018-07-01T07:50:14.073Z,37.90
2018-07-01T07:52:42.020Z,37.10
2018-07-01T07:55:09.937Z,37.10
2018-07-01T07:57:37.841Z,36.90
2018-07-01T08:00:05.817Z,36.50
2018-07-01T08:02:33.896Z,36.90
2018-07-01T08:05:02.226Z,38.10
2018-07-01T08:07:30.201Z,37.70
2018-07-01T08:09:58.280Z,36.60
2018-07-01T08:12:26.345Z,36.20
2018-07-01T08:14:54.281Z,36.30
2018-07-01T08:17:22.161Z,37.10
2018-07-01T08:19:50.023Z,36.50
2018-07-01T08:22:17.913Z,36.00
2018-07-01T08:24:45.850Z,36.80
2018-07-01T08:27:13.645Z,36.90
2018-07-01T08:29:41.441Z,36.80
2018-07-01T08:32:09.298Z,36.30
2018-07-01T08:34:37.169Z,36.20
2018-07-01T08:37:05.353Z,35.80
2018-07-01T08:39:33.208Z,35.10
2018-07-01T08:42:34.185Z,35.10
2018-07-01T08:45:03.537Z,35.30
2018-07-01T08:47:32.056Z,35.00
2018-07-01T08:49:59.922Z,34.10
2018-07-01T08:52:27.874Z,33.70
2018-07-01T08:57:23.849Z,34.30
2018-07-01T08:59:51.732Z,33.90
2018-07-01T09:02:20.453Z,34.60
2018-07-01T09:04:48.410Z,35.20
2018-07-01T09:07:17.003Z,35.20
2018-07-01T09:09:45.149Z,35.50
2018-07-01T09:12:13.072Z,34.70
2018-07-01T09:14:41.507Z,33.60
2018-07-01T09:17:09.539Z,34.20
2018-07-01T09:19:37.325Z,34.10
2018-07-01T09:22:05.234Z,34.10
2018-07-01T09:24:33.106Z,34.30
2018-07-01T09:27:01.182Z,33.60
2018-07-01T09:29:29.660Z,33.30
2018-07-01T09:31:57.670Z,34.00
2018-07-01T09:34:26.644Z,34.50
2018-07-01T09:36:55.021Z,33.30
2018-07-01T09:39:23.217Z,32.40
2018-07-01T09:41:52.825Z,32.20
2018-07-01T09:44:20.829Z,31.50
2018-07-01T09:46:48.755Z,31.80
2018-07-01T09:49:16.686Z,31.80
2018-07-01T09:51:44.654Z,33.10
2018-07-01T09:54:12.931Z,32.30
2018-07-01T09:56:42.028Z,32.00
2018-07-01T09:59:10.935Z,32.50
2018-07-01T10:01:40.026Z,31.30
2018-07-01T10:04:07.941Z,29.30
2018-07-01T10:06:35.944Z,27.50
2018-07-01T10:09:08.282Z,26.30
2018-07-01T10:11:36.901Z,25.20
2018-07-01T10:14:06.056Z,24.90
2018-07-01T10:16:34.177Z,24.10
2018-07-01T10:19:02.141Z,24.40
2018-07-01T10:21:30.464Z,24.00
2018-07-01T10:23:58.380Z,24.60
2018-07-01T10:26:26.216Z,24.20
2018-07-01T10:29:06.390Z,24.10
2018-07-01T10:31:35.140Z,23.30
2018-07-01T10:34:03.426Z,23.00
2018-07-01T10:36:31.361Z,22.70
2018-07-01T10:38:59.280Z,22.40
2018-07-01T10:41:27.213Z,22.10
2018-07-01T10:43:56.762Z,21.90
2018-07-01T10:46:24.774Z,22.60
2018-07-01T10:48:52.974Z,22.10
2018-07-01T10:51:20.824Z,21.50
2018-07-01T10:53:48.695Z,22.00
2018-07-01T10:56:16.565Z,22.00
2018-07-01T10:58:44.377Z,22.10
2018-07-01T11:01:12.304Z,21.50
2018-07-01T11:03:40.409Z,22.10
2018-07-01T11:06:08.463Z,21.80
2018-07-01T11:08:36.869Z,21.40
2018-07-01T11:11:05.098Z,21.60
2018-07-01T11:13:33.253Z,21.50
2018-07-01T11:16:01.644Z,22.80
2018-07-01T11:18:30.201Z,22.50
2018-07-01T11:20:59.164Z,21.00
2018-07-01T11:23:27.037Z,20.30
2018-07-01T11:28:22.763Z,21.40
2018-07-01T11:30:50.706Z,21.10
2018-07-01T11:33:18.671Z,21.30
2018-07-01T11:35:46.680Z,21.20
2018-07-01T11:38:15.431Z,20.80
2018-07-01T11:43:12.494Z,21.10
2018-07-01T11:45:40.440Z,20.90
2018-07-01T11:48:08.330Z,20.10
2018-07-01T11:50:36.157Z,20.50
2018-07-01T11:53:04.328Z,20.30
2018-07-01T11:55:32.510Z,21.30
2018-07-01T11:58:00.309Z,21.40
2018-07-01T12:00:28.200Z,20.70
2018-07-01T12:02:56.306Z,21.20
2018-07-01T12:05:24.481Z,20.40
2018-07-01T12:07:52.424Z,20.40
2018-07-01T12:10:20.314Z,21.10
2018-07-01T12:12:49.041Z,21.20
2018-07-01T12:15:17.105Z,20.30
2018-07-01T12:17:45.053Z,20.50
2018-07-01T12:20:12.908Z,21.00
2018-07-01T12:22:40.837Z,20.70
2018-07-01T12:25:08.717Z,20.40
2018-07-01T12:27:36.724Z,20.90
2018-07-01T12:30:06.647Z,20.80
2018-07-01T12:32:34.490Z,21.30
2018-07-01T12:35:02.387Z,21.80
2018-07-01T12:37:30.273Z,20.80
2018-07-01T12:40:00.384Z,21.60
2018-07-01T12:42:28.599Z,21.40
2018-07-01T12:44:56.527Z,21.70
2018-07-01T12:47:24.408Z,21.40
2018-07-01T12:49:52.317Z,21.20
2018-07-01T12:52:20.165Z,20.80
2018-07-01T12:54:48.032Z,20.50
2018-07-01T12:57:15.949Z,21.40
2018-07-01T12:59:43.873Z,22.00
2018-07-01T13:02:11.744Z,21.20
2018-07-01T13:04:39.736Z,21.40
2018-07-01T13:07:08.029Z,21.80
2018-07-01T13:09:36.094Z,21.10
2018-07-01T13:12:04.195Z,21.20
2018-07-01T13:14:32.129Z,22.10
2018-07-01T13:16:59.996Z,21.00
2018-07-01T13:19:28.534Z,22.60
2018-07-01T13:21:56.447Z,20.90
2018-07-01T13:24:24.285Z,22.60
2018-07-01T13:26:52.442Z,22.00
2018-07-01T13:29:20.380Z,22.50
2018-07-01T13:31:48.432Z,22.40
2018-07-01T13:34:16.262Z,23.00
2018-07-01T13:36:44.161Z,22.70
2018-07-01T13:39:12.285Z,23.40
2018-07-01T13:41:40.145Z,23.60
2018-07-01T13:44:08.243Z,23.60
2018-07-01T13:46:36.519Z,23.20
2018-07-01T13:49:05.235Z,23.20
2018-07-01T13:51:33.153Z,23.20
2018-07-01T13:54:01.121Z,23.30
2018-07-01T13:58:57.204Z,24.20
2018-07-01T14:01:25.311Z,24.10
2018-07-01T14:03:53.300Z,24.60
2018-07-01T14:06:21.220Z,24.70
2018-07-01T14:11:17.459Z,25.00
2018-07-01T14:13:45.343Z,26.10
2018-07-01T14:18:41.126Z,25.10
2018-07-01T14:21:09.080Z,25.80
2018-07-01T14:23:37.104Z,25.70
2018-07-01T14:26:05.058Z,25.80
2018-07-01T14:28:33.018Z,25.50
2018-07-01T14:31:00.869Z,25.20
2018-07-01T14:33:28.970Z,25.30
2018-07-01T14:35:56.852Z,25.70
2018-07-01T14:38:24.677Z,25.90
2018-07-01T14:40:52.569Z,26.40
2018-07-01T14:43:20.975Z,26.00
2018-07-01T14:45:48.873Z,26.10
2018-07-01T14:48:16.772Z,26.20
2018-07-01T14:50:44.901Z,26.30
2018-07-01T14:53:12.757Z,26.80
2018-07-01T14:55:40.641Z,25.80
2018-07-01T14:58:08.838Z,26.20
2018-07-01T15:00:36.777Z,26.80
2018-07-01T15:03:04.853Z,26.20
2018-07-01T15:05:32.817Z,26.40
2018-07-01T15:08:00.717Z,26.10
2018-07-01T15:10:28.654Z,26.20
2018-07-01T15:12:56.553Z,26.10
2018-07-01T15:15:24.566Z,26.00
2018-07-01T15:17:52.497Z,26.30
2018-07-01T15:20:20.604Z,26.40
2018-07-01T15:22:48.515Z,26.40
2018-07-01T15:25:16.448Z,26.20
2018-07-01T15:27:44.340Z,26.10
2018-07-01T15:30:12.189Z,26.10
2018-07-01T15:32:40.157Z,25.50
2018-07-01T15:35:08.005Z,25.70
2018-07-01T15:37:35.856Z,25.90
2018-07-01T15:40:04.361Z,26.00
2018-07-01T15:42:32.175Z,26.10
2018-07-01T15:45:00.140Z,26.00
2018-07-01T15:47:28.037Z,26.10
2018-07-01T15:49:55.868Z,25.70
2018-07-01T15:52:23.752Z,25.70
2018-07-01T15:54:51.709Z,25.20
2018-07-01T15:57:19.600Z,25.90
2018-07-01T15:59:47.890Z,25.90
2018-07-01T16:02:15.801Z,25.90
2018-07-01T16:04:43.769Z,26.20
2018-07-01T16:07:11.742Z,25.90
2018-07-01T16:09:39.701Z,26.20
2018-07-01T16:12:07.645Z,26.70
2018-07-01T16:14:35.509Z,26.80
2018-07-01T16:17:03.449Z,26.30
2018-07-01T16:19:31.329Z,26.60
2018-07-01T16:21:59.260Z,27.30
2018-07-01T16:24:27.182Z,26.70
2018-07-01T16:26:56.512Z,27.20
2018-07-01T16:29:24.333Z,27.20
2018-07-01T16:31:52.247Z,26.60
2018-07-01T16:34:20.207Z,26.30
2018-07-01T16:36:48.102Z,26.60
2018-07-01T16:39:15.976Z,26.50
2018-07-01T16:41:43.825Z,26.80
2018-07-01T16:44:11.703Z,27.10
2018-07-01T16:46:39.666Z,27.00
2018-07-01T16:49:07.506Z,27.20
2018-07-01T16:51:35.310Z,26.80
2018-07-01T16:54:03.382Z,27.30
2018-07-01T16:56:31.289Z,27.30
2018-07-01T16:58:59.168Z,27.40
2018-07-01T17:01:27.080Z,27.40
2018-07-01T17:03:55.018Z,27.60
2018-07-01T17:06:22.921Z,27.50
2018-07-01T17:08:50.886Z,27.90
2018-07-01T17:11:18.822Z,28.10
2018-07-01T17:13:46.745Z,28.10
2018-07-01T17:16:14.637Z,28.00
2018-07-01T17:18:42.500Z,28.00
2018-07-01T17:21:10.613Z,27.90
2018-07-01T17:23:38.577Z,27.70
2018-07-01T17:26:06.649Z,28.00
2018-07-01T17:28:34.537Z,28.30
2018-07-01T17:31:08.010Z,28.20
2018-07-01T17:33:36.212Z,28.20
2018-07-01T17:36:04.837Z,28.10
2018-07-01T17:41:00.771Z,28.10
2018-07-01T17:43:28.621Z,27.80
2018-07-01T17:45:56.552Z,27.80
2018-07-01T17:48:24.389Z,28.10
2018-07-01T17:50:54.161Z,28.30
2018-07-01T17:53:39.556Z,28.50
2018-07-01T17:56:07.509Z,28.40
2018-07-01T17:58:35.461Z,28.80
2018-07-01T18:01:03.376Z,28.30
2018-07-01T18:03:31.217Z,28.60
2018-07-01T18:05:59.633Z,28.80
2018-07-01T18:08:27.816Z,28.90
2018-07-01T18:10:56.197Z,28.90
2018-07-01T18:13:24.586Z,28.40
2018-07-01T18:15:55.382Z,28.30
2018-07-01T18:18:23.704Z,28.50
2018-07-01T18:20:51.983Z,28.80
2018-07-01T18:25:51.000Z,29.30
2018-07-01T18:28:34.109Z,29.50
2018-07-01T18:30:49.818Z,29.40
2018-07-01T18:33:18.094Z,29.50
2018-07-01T18:35:46.479Z,29.60
2018-07-01T18:38:14.865Z,29.90
2018-07-01T18:40:43.145Z,29.70
2018-07-01T18:43:11.633Z,29.60
2018-07-01T18:45:43.114Z,29.70
2018-07-01T18:48:11.571Z,29.50
2018-07-01T18:50:39.952Z,29.60
2018-07-01T18:53:08.231Z,29.90
2018-07-01T18:55:36.819Z,30.00
2018-07-01T18:58:06.157Z,30.20
2018-07-01T19:00:34.506Z,30.60
2018-07-01T19:03:03.445Z,30.40
2018-07-01T19:05:33.019Z,30.90
2018-07-01T19:08:01.295Z,31.00
2018-07-01T19:10:29.779Z,31.30
2018-07-01T19:12:59.675Z,31.50
2018-07-01T19:15:28.289Z,32.00
2018-07-01T19:17:56.667Z,32.50
2018-07-01T19:20:25.096Z,32.20
2018-07-01T19:22:53.841Z,32.10
2018-07-01T19:25:22.156Z,32.70
2018-07-01T19:27:50.614Z,33.20
2018-07-01T19:30:18.997Z,34.10
2018-07-01T19:32:47.381Z,34.70
2018-07-01T19:35:15.765Z,34.10
2018-07-01T19:37:44.149Z,34.70
2018-07-01T19:40:12.431Z,35.00
2018-07-01T19:42:41.002Z,35.30
2018-07-01T19:45:09.294Z,35.50
2018-07-01T19:47:37.580Z,36.00
2018-07-01T19:50:05.963Z,36.60
2018-07-01T19:52:34.243Z,36.80
2018-07-01T19:55:02.623Z,36.80
2018-07-01T19:57:31.012Z,37.60
2018-07-01T19:59:59.292Z,37.50
2018-07-01T20:02:28.186Z,37.60
2018-07-01T20:04:56.669Z,37.50
2018-07-01T20:07:24.954Z,37.90
2018-07-01T20:09:55.398Z,37.60
2018-07-01T20:12:23.972Z,37.80
2018-07-01T20:14:52.659Z,37.80
2018-07-01T20:17:28.398Z,37.90
2018-07-01T20:19:56.573Z,38.10
2018-07-01T20:24:53.249Z,39.00
2018-07-01T20:27:21.193Z,39.20
2018-07-01T20:29:49.071Z,39.50
2018-07-01T20:32:17.037Z,39.80
2018-07-01T20:34:45.993Z,39.40
2018-07-01T20:37:13.947Z,39.80
2018-07-01T20:39:41.833Z,40.60
2018-07-01T20:42:10.906Z,40.00
2018-07-01T20:44:39.689Z,40.00
2018-07-01T20:47:13.146Z,40.40
2018-07-01T20:49:41.132Z,40.80
2018-07-01T20:54:36.881Z,41.40
2018-07-01T20:57:04.850Z,41.10
2018-07-01T20:59:32.724Z,42.10
2018-07-01T21:02:00.508Z,41.80
2018-07-01T21:04:28.463Z,42.00
2018-07-01T21:06:57.065Z,42.30
2018-07-01T21:09:24.935Z,42.00
2018-07-01T21:11:55.277Z,42.30
2018-07-01T21:14:23.301Z,42.30
2018-07-01T21:16:51.249Z,42.50
2018-07-01T21:19:19.137Z,42.50
2018-07-01T21:21:49.706Z,42.50
2018-07-01T21:24:17.565Z,42.80
2018-07-01T21:26:45.422Z,43.00
2018-07-01T21:29:13.292Z,43.60
2018-07-01T21:31:41.136Z,43.80
2018-07-01T21:34:09.032Z,43.60
2018-07-01T21:36:37.000Z,43.80
2018-07-01T21:39:08.645Z,43.90
2018-07-01T21:41:37.168Z,44.00
2018-07-01T21:44:05.289Z,43.90
2018-07-01T21:46:33.180Z,44.20
2018-07-01T21:49:00.998Z,44.70
2018-07-01T21:51:28.912Z,44.50
2018-07-01T21:53:57.061Z,44.90
2018-07-01T21:56:26.602Z,44.80
2018-07-01T21:58:54.857Z,45.20
2018-07-01T22:01:22.860Z,44.90
2018-07-01T22:03:51.187Z,45.10
2018-07-01T22:06:19.140Z,45.40
2018-07-01T22:08:47.111Z,45.60
2018-07-01T22:12:00.261Z,46.40
2018-07-01T22:14:38.672Z,46.00
2018-07-01T22:17:09.629Z,46.30
2018-07-01T22:19:37.896Z,46.60
2018-07-01T22:22:06.025Z,46.60
2018-07-01T22:24:35.000Z,47.00
2018-07-01T22:27:02.909Z,47.10
2018-07-01T22:29:30.824Z,47.60
2018-07-01T22:31:58.776Z,47.50
2018-07-01T22:34:26.677Z,47.50
2018-07-01T22:36:54.858Z,48.10
2018-07-01T22:39:26.961Z,47.90
2018-07-01T22:41:55.846Z,48.90
2018-07-01T22:44:23.845Z,48.60
2018-07-01T22:46:52.281Z,48.10
2018-07-01T22:49:20.193Z,49.40
2018-07-01T22:51:48.105Z,49.00
2018-07-01T22:54:16.045Z,49.30
2018-07-01T22:56:43.893Z,49.10
2018-07-01T22:59:11.797Z,49.00
2018-07-01T23:01:57.493Z,49.50
2018-07-01T23:04:25.365Z,50.10
2018-07-01T23:06:53.421Z,49.90
2018-07-01T23:09:21.289Z,50.20
2018-07-01T23:11:49.127Z,50.00
2018-07-01T23:14:17.029Z,49.80
2018-07-01T23:16:44.913Z,50.90
2018-07-01T23:19:12.769Z,50.20
2018-07-01T23:21:40.649Z,50.40
2018-07-01T23:24:08.538Z,51.20
2018-07-01T23:26:36.425Z,51.30
2018-07-01T23:29:04.369Z,51.70
2018-07-01T23:31:32.248Z,51.30
2018-07-01T23:36:28.026Z,51.70
2018-07-01T23:38:55.890Z,51.90
2018-07-01T23:41:23.805Z,51.60
2018-07-01T23:43:51.709Z,52.10
2018-07-01T23:46:19.652Z,52.30
2018-07-01T23:48:47.540Z,52.10
2018-07-01T23:51:15.480Z,52.60
2018-07-01T23:53:43.313Z,52.40
2018-07-01T23:56:11.262Z,53.20
2018-07-01T23:58:39.170Z,53.50
